sensor_id;sensor_type;location;lat;lon;timestamp;P1;durP1;ratioP1;P2;durP2;ratioP2
10934;SDS011;5520;45.752;4.874;2023-02-01T00:02:01;4.97;;;3.40;;
10934;SDS011;5520;45.752;4.874;2023-02-01T00:04:29;4.83;;;3.30;;
10934;SDS011;5520;45.752;4.874;2023-02-01T00:06:57;4.87;;;3.63;;
10934;SDS011;5520;45.752;4.874;2023-02-01T00:09:25;5.30;;;3.60;;
10934;SDS011;5520;45.752;4.874;2023-02-01T00:11:55;3.90;;;3.20;;
10934;SDS011;5520;45.752;4.874;2023-02-01T00:14:25;4.57;;;3.50;;
10934;SDS011;5520;45.752;4.874;2023-02-01T00:16:53;5.00;;;2.77;;
10934;SDS011;5520;45.752;4.874;2023-02-01T00:19:21;5.90;;;3.57;;
10934;SDS011;5520;45.752;4.874;2023-02-01T00:21:49;4.37;;;3.33;;
10934;SDS011;5520;45.752;4.874;2023-02-01T00:24:17;5.30;;;3.47;;
10934;SDS011;5520;45.752;4.874;2023-02-01T00:26:45;5.03;;;3.40;;
10934;SDS011;5520;45.752;4.874;2023-02-01T00:29:16;6.20;;;4.47;;
10934;SDS011;5520;45.752;4.874;2023-02-01T00:31:46;4.87;;;3.60;;
10934;SDS011;5520;45.752;4.874;2023-02-01T00:34:14;6.97;;;4.40;;
10934;SDS011;5520;45.752;4.874;2023-02-01T00:36:43;6.30;;;3.50;;
10934;SDS011;5520;45.752;4.874;2023-02-01T00:39:11;4.37;;;3.00;;
10934;SDS011;5520;45.752;4.874;2023-02-01T00:41:39;4.23;;;3.37;;
10934;SDS011;5520;45.752;4.874;2023-02-01T00:44:08;4.10;;;3.07;;
10934;SDS011;5520;45.752;4.874;2023-02-01T00:46:37;5.73;;;3.40;;
10934;SDS011;5520;45.752;4.874;2023-02-01T00:49:05;4.50;;;3.13;;
10934;SDS011;5520;45.752;4.874;2023-02-01T00:51:35;5.20;;;3.47;;
10934;SDS011;5520;45.752;4.874;2023-02-01T00:54:03;3.80;;;3.40;;
10934;SDS011;5520;45.752;4.874;2023-02-01T00:56:31;5.13;;;3.13;;
10934;SDS011;5520;45.752;4.874;2023-02-01T00:58:59;6.37;;;3.87;;
10934;SDS011;5520;45.752;4.874;2023-02-01T01:01:27;7.17;;;3.60;;
10934;SDS011;5520;45.752;4.874;2023-02-01T01:03:57;6.00;;;4.23;;
10934;SDS011;5520;45.752;4.874;2023-02-01T01:06:26;6.87;;;4.00;;
10934;SDS011;5520;45.752;4.874;2023-02-01T01:08:55;6.27;;;4.07;;
10934;SDS011;5520;45.752;4.874;2023-02-01T01:11:24;6.70;;;4.17;;
10934;SDS011;5520;45.752;4.874;2023-02-01T01:13:53;6.90;;;4.87;;
10934;SDS011;5520;45.752;4.874;2023-02-01T01:16:22;5.97;;;4.33;;
10934;SDS011;5520;45.752;4.874;2023-02-01T01:18:50;7.63;;;4.40;;
10934;SDS011;5520;45.752;4.874;2023-02-01T01:21:20;10.23;;;4.53;;
10934;SDS011;5520;45.752;4.874;2023-02-01T01:23:48;8.17;;;4.60;;
10934;SDS011;5520;45.752;4.874;2023-02-01T01:26:16;5.83;;;4.77;;
10934;SDS011;5520;45.752;4.874;2023-02-01T01:28:45;6.27;;;4.53;;
10934;SDS011;5520;45.752;4.874;2023-02-01T01:31:14;9.43;;;4.67;;
10934;SDS011;5520;45.752;4.874;2023-02-01T01:33:43;7.40;;;4.80;;
10934;SDS011;5520;45.752;4.874;2023-02-01T01:36:11;8.27;;;4.97;;
10934;SDS011;5520;45.752;4.874;2023-02-01T01:38:41;8.00;;;4.83;;
10934;SDS011;5520;45.752;4.874;2023-02-01T01:41:12;6.83;;;4.47;;
10934;SDS011;5520;45.752;4.874;2023-02-01T01:43:47;7.63;;;5.30;;
10934;SDS011;5520;45.752;4.874;2023-02-01T01:46:16;8.10;;;5.03;;
10934;SDS011;5520;45.752;4.874;2023-02-01T01:48:45;7.10;;;4.33;;
10934;SDS011;5520;45.752;4.874;2023-02-01T01:51:13;5.47;;;4.53;;
10934;SDS011;5520;45.752;4.874;2023-02-01T01:53:44;5.43;;;4.47;;
10934;SDS011;5520;45.752;4.874;2023-02-01T01:56:12;7.40;;;5.27;;
10934;SDS011;5520;45.752;4.874;2023-02-01T01:58:41;5.17;;;4.60;;
10934;SDS011;5520;45.752;4.874;2023-02-01T02:01:09;7.37;;;5.53;;
10934;SDS011;5520;45.752;4.874;2023-02-01T02:03:38;6.13;;;4.27;;
10934;SDS011;5520;45.752;4.874;2023-02-01T02:06:09;7.47;;;5.07;;
10934;SDS011;5520;45.752;4.874;2023-02-01T02:08:40;8.43;;;5.03;;
10934;SDS011;5520;45.752;4.874;2023-02-01T02:11:10;7.00;;;5.10;;
10934;SDS011;5520;45.752;4.874;2023-02-01T02:13:39;8.10;;;4.90;;
10934;SDS011;5520;45.752;4.874;2023-02-01T02:16:13;10.30;;;4.77;;
10934;SDS011;5520;45.752;4.874;2023-02-01T02:18:48;11.07;;;5.87;;
10934;SDS011;5520;45.752;4.874;2023-02-01T02:21:23;11.43;;;5.47;;
10934;SDS011;5520;45.752;4.874;2023-02-01T02:24:17;21.40;;;8.23;;
10934;SDS011;5520;45.752;4.874;2023-02-01T02:27:01;14.37;;;6.90;;
10934;SDS011;5520;45.752;4.874;2023-02-01T02:29:46;10.37;;;5.83;;
10934;SDS011;5520;45.752;4.874;2023-02-01T02:32:23;12.10;;;6.33;;
10934;SDS011;5520;45.752;4.874;2023-02-01T02:34:59;8.50;;;4.83;;
10934;SDS011;5520;45.752;4.874;2023-02-01T02:37:32;9.57;;;5.47;;
10934;SDS011;5520;45.752;4.874;2023-02-01T02:40:02;12.27;;;5.17;;
10934;SDS011;5520;45.752;4.874;2023-02-01T02:42:36;7.87;;;4.70;;
10934;SDS011;5520;45.752;4.874;2023-02-01T02:45:25;6.50;;;4.43;;
10934;SDS011;5520;45.752;4.874;2023-02-01T02:48:15;6.20;;;4.03;;
10934;SDS011;5520;45.752;4.874;2023-02-01T02:50:47;6.77;;;4.80;;
10934;SDS011;5520;45.752;4.874;2023-02-01T02:53:35;9.17;;;4.77;;
10934;SDS011;5520;45.752;4.874;2023-02-01T02:56:29;7.07;;;4.37;;
10934;SDS011;5520;45.752;4.874;2023-02-01T02:59:15;6.53;;;4.40;;
10934;SDS011;5520;45.752;4.874;2023-02-01T03:02:02;6.63;;;4.40;;
10934;SDS011;5520;45.752;4.874;2023-02-01T03:04:51;7.73;;;4.60;;
10934;SDS011;5520;45.752;4.874;2023-02-01T03:10:11;5.67;;;4.10;;
10934;SDS011;5520;45.752;4.874;2023-02-01T03:12:41;5.77;;;3.70;;
10934;SDS011;5520;45.752;4.874;2023-02-01T03:15:26;7.73;;;4.20;;
10934;SDS011;5520;45.752;4.874;2023-02-01T03:17:57;6.17;;;4.20;;
10934;SDS011;5520;45.752;4.874;2023-02-01T03:20:27;5.70;;;4.10;;
10934;SDS011;5520;45.752;4.874;2023-02-01T03:22:55;10.03;;;4.67;;
10934;SDS011;5520;45.752;4.874;2023-02-01T03:25:26;7.70;;;3.97;;
10934;SDS011;5520;45.752;4.874;2023-02-01T03:27:57;5.83;;;4.17;;
10934;SDS011;5520;45.752;4.874;2023-02-01T03:30:28;5.77;;;3.97;;
10934;SDS011;5520;45.752;4.874;2023-02-01T03:32:58;5.57;;;4.23;;
10934;SDS011;5520;45.752;4.874;2023-02-01T03:35:27;6.67;;;4.13;;
10934;SDS011;5520;45.752;4.874;2023-02-01T03:37:56;4.93;;;4.30;;
10934;SDS011;5520;45.752;4.874;2023-02-01T03:40:30;7.40;;;4.40;;
10934;SDS011;5520;45.752;4.874;2023-02-01T03:43:01;7.10;;;4.00;;
10934;SDS011;5520;45.752;4.874;2023-02-01T03:45:33;6.13;;;4.43;;
10934;SDS011;5520;45.752;4.874;2023-02-01T03:48:02;7.07;;;4.40;;
10934;SDS011;5520;45.752;4.874;2023-02-01T03:50:30;6.93;;;4.73;;
10934;SDS011;5520;45.752;4.874;2023-02-01T03:53:01;8.20;;;4.70;;
10934;SDS011;5520;45.752;4.874;2023-02-01T03:55:31;6.47;;;4.60;;
10934;SDS011;5520;45.752;4.874;2023-02-01T03:58:01;7.17;;;4.13;;
10934;SDS011;5520;45.752;4.874;2023-02-01T04:00:31;7.83;;;5.00;;
10934;SDS011;5520;45.752;4.874;2023-02-01T04:02:59;8.27;;;4.80;;
10934;SDS011;5520;45.752;4.874;2023-02-01T04:05:28;7.27;;;4.97;;
10934;SDS011;5520;45.752;4.874;2023-02-01T04:07:56;7.97;;;4.47;;
10934;SDS011;5520;45.752;4.874;2023-02-01T04:10:24;6.20;;;4.10;;
10934;SDS011;5520;45.752;4.874;2023-02-01T04:12:54;7.87;;;4.63;;
10934;SDS011;5520;45.752;4.874;2023-02-01T04:15:22;8.73;;;4.10;;
10934;SDS011;5520;45.752;4.874;2023-02-01T04:17:50;7.23;;;4.53;;
10934;SDS011;5520;45.752;4.874;2023-02-01T04:20:18;8.17;;;4.40;;
10934;SDS011;5520;45.752;4.874;2023-02-01T04:22:46;7.53;;;4.73;;
10934;SDS011;5520;45.752;4.874;2023-02-01T04:25:14;6.97;;;4.07;;
10934;SDS011;5520;45.752;4.874;2023-02-01T04:27:43;7.90;;;4.13;;
10934;SDS011;5520;45.752;4.874;2023-02-01T04:30:13;5.57;;;4.00;;
10934;SDS011;5520;45.752;4.874;2023-02-01T04:32:41;4.67;;;3.80;;
10934;SDS011;5520;45.752;4.874;2023-02-01T04:35:09;6.10;;;3.77;;
10934;SDS011;5520;45.752;4.874;2023-02-01T04:37:38;6.60;;;4.07;;
10934;SDS011;5520;45.752;4.874;2023-02-01T04:40:06;5.50;;;4.13;;
10934;SDS011;5520;45.752;4.874;2023-02-01T04:42:34;5.60;;;3.50;;
10934;SDS011;5520;45.752;4.874;2023-02-01T04:45:02;5.53;;;3.50;;
10934;SDS011;5520;45.752;4.874;2023-02-01T04:47:32;5.53;;;3.70;;
10934;SDS011;5520;45.752;4.874;2023-02-01T04:50:00;4.40;;;3.13;;
10934;SDS011;5520;45.752;4.874;2023-02-01T04:52:28;4.20;;;3.63;;
10934;SDS011;5520;45.752;4.874;2023-02-01T04:54:56;7.80;;;3.43;;
10934;SDS011;5520;45.752;4.874;2023-02-01T04:57:26;5.83;;;3.47;;
10934;SDS011;5520;45.752;4.874;2023-02-01T04:59:54;6.77;;;3.80;;
10934;SDS011;5520;45.752;4.874;2023-02-01T05:02:22;6.57;;;3.30;;
10934;SDS011;5520;45.752;4.874;2023-02-01T05:04:51;5.90;;;3.07;;
10934;SDS011;5520;45.752;4.874;2023-02-01T05:07:20;8.70;;;3.50;;
10934;SDS011;5520;45.752;4.874;2023-02-01T05:09:48;5.13;;;3.40;;
10934;SDS011;5520;45.752;4.874;2023-02-01T05:12:16;4.53;;;3.23;;
10934;SDS011;5520;45.752;4.874;2023-02-01T05:15:02;5.70;;;3.47;;
10934;SDS011;5520;45.752;4.874;2023-02-01T05:17:30;5.10;;;4.00;;
10934;SDS011;5520;45.752;4.874;2023-02-01T05:20:00;6.73;;;3.47;;
10934;SDS011;5520;45.752;4.874;2023-02-01T05:22:28;8.70;;;3.97;;
10934;SDS011;5520;45.752;4.874;2023-02-01T05:24:56;5.47;;;3.50;;
10934;SDS011;5520;45.752;4.874;2023-02-01T05:27:24;5.33;;;3.30;;
10934;SDS011;5520;45.752;4.874;2023-02-01T05:29:52;5.23;;;3.43;;
10934;SDS011;5520;45.752;4.874;2023-02-01T05:32:19;6.53;;;3.67;;
10934;SDS011;5520;45.752;4.874;2023-02-01T05:34:49;5.67;;;3.40;;
10934;SDS011;5520;45.752;4.874;2023-02-01T05:37:22;6.00;;;2.73;;
10934;SDS011;5520;45.752;4.874;2023-02-01T05:39:50;8.00;;;3.63;;
10934;SDS011;5520;45.752;4.874;2023-02-01T05:42:18;3.97;;;3.57;;
10934;SDS011;5520;45.752;4.874;2023-02-01T05:44:46;4.60;;;3.23;;
10934;SDS011;5520;45.752;4.874;2023-02-01T05:47:14;5.83;;;3.23;;
10934;SDS011;5520;45.752;4.874;2023-02-01T05:49:42;5.47;;;3.97;;
10934;SDS011;5520;45.752;4.874;2023-02-01T05:52:10;7.47;;;3.40;;
10934;SDS011;5520;45.752;4.874;2023-02-01T05:54:40;7.53;;;3.23;;
10934;SDS011;5520;45.752;4.874;2023-02-01T05:57:08;5.37;;;3.23;;
10934;SDS011;5520;45.752;4.874;2023-02-01T05:59:36;5.67;;;3.90;;
10934;SDS011;5520;45.752;4.874;2023-02-01T06:02:07;6.87;;;3.43;;
10934;SDS011;5520;45.752;4.874;2023-02-01T06:04:36;7.77;;;3.83;;
10934;SDS011;5520;45.752;4.874;2023-02-01T06:07:04;10.47;;;3.80;;
10934;SDS011;5520;45.752;4.874;2023-02-01T06:09:33;4.00;;;3.10;;
10934;SDS011;5520;45.752;4.874;2023-02-01T06:12:03;9.07;;;3.60;;
10934;SDS011;5520;45.752;4.874;2023-02-01T06:14:31;6.63;;;3.30;;
10934;SDS011;5520;45.752;4.874;2023-02-01T06:16:59;5.40;;;3.53;;
10934;SDS011;5520;45.752;4.874;2023-02-01T06:19:27;7.27;;;4.27;;
10934;SDS011;5520;45.752;4.874;2023-02-01T06:21:55;5.07;;;3.17;;
10934;SDS011;5520;45.752;4.874;2023-02-01T06:24:23;4.80;;;2.90;;
10934;SDS011;5520;45.752;4.874;2023-02-01T06:26:51;4.23;;;3.27;;
10934;SDS011;5520;45.752;4.874;2023-02-01T06:29:21;4.00;;;3.20;;
10934;SDS011;5520;45.752;4.874;2023-02-01T06:31:49;5.90;;;3.50;;
10934;SDS011;5520;45.752;4.874;2023-02-01T06:34:17;5.40;;;3.17;;
10934;SDS011;5520;45.752;4.874;2023-02-01T06:36:47;4.07;;;3.23;;
10934;SDS011;5520;45.752;4.874;2023-02-01T06:39:15;8.10;;;3.70;;
10934;SDS011;5520;45.752;4.874;2023-02-01T06:41:45;4.63;;;2.90;;
10934;SDS011;5520;45.752;4.874;2023-02-01T06:44:13;4.57;;;3.10;;
10934;SDS011;5520;45.752;4.874;2023-02-01T06:46:42;4.57;;;3.20;;
10934;SDS011;5520;45.752;4.874;2023-02-01T06:49:11;5.97;;;3.10;;
10934;SDS011;5520;45.752;4.874;2023-02-01T06:51:38;4.10;;;3.27;;
10934;SDS011;5520;45.752;4.874;2023-02-01T06:54:06;6.67;;;2.77;;
10934;SDS011;5520;45.752;4.874;2023-02-01T06:56:34;3.80;;;2.67;;
10934;SDS011;5520;45.752;4.874;2023-02-01T06:59:03;4.83;;;3.07;;
10934;SDS011;5520;45.752;4.874;2023-02-01T07:01:31;4.20;;;2.50;;
10934;SDS011;5520;45.752;4.874;2023-02-01T07:04:01;3.10;;;2.57;;
10934;SDS011;5520;45.752;4.874;2023-02-01T07:06:29;4.93;;;2.47;;
10934;SDS011;5520;45.752;4.874;2023-02-01T07:08:57;4.33;;;2.83;;
10934;SDS011;5520;45.752;4.874;2023-02-01T07:11:26;7.37;;;3.13;;
10934;SDS011;5520;45.752;4.874;2023-02-01T07:13:55;4.17;;;2.97;;
10934;SDS011;5520;45.752;4.874;2023-02-01T07:16:22;4.03;;;3.60;;
10934;SDS011;5520;45.752;4.874;2023-02-01T07:18:52;5.57;;;3.50;;
10934;SDS011;5520;45.752;4.874;2023-02-01T07:21:21;5.67;;;3.90;;
10934;SDS011;5520;45.752;4.874;2023-02-01T07:23:49;6.33;;;3.07;;
10934;SDS011;5520;45.752;4.874;2023-02-01T07:26:17;6.10;;;3.23;;
10934;SDS011;5520;45.752;4.874;2023-02-01T07:28:45;5.67;;;3.17;;
10934;SDS011;5520;45.752;4.874;2023-02-01T07:31:14;6.20;;;3.47;;
10934;SDS011;5520;45.752;4.874;2023-02-01T07:33:44;6.13;;;3.40;;
10934;SDS011;5520;45.752;4.874;2023-02-01T07:36:13;5.90;;;3.33;;
10934;SDS011;5520;45.752;4.874;2023-02-01T07:38:43;6.87;;;3.43;;
10934;SDS011;5520;45.752;4.874;2023-02-01T07:41:14;5.83;;;3.60;;
10934;SDS011;5520;45.752;4.874;2023-02-01T07:43:42;3.97;;;3.23;;
10934;SDS011;5520;45.752;4.874;2023-02-01T07:46:14;7.77;;;3.33;;
10934;SDS011;5520;45.752;4.874;2023-02-01T07:48:43;7.03;;;3.30;;
10934;SDS011;5520;45.752;4.874;2023-02-01T07:51:11;5.53;;;3.17;;
10934;SDS011;5520;45.752;4.874;2023-02-01T07:53:41;7.87;;;4.10;;
10934;SDS011;5520;45.752;4.874;2023-02-01T07:56:12;6.23;;;2.90;;
10934;SDS011;5520;45.752;4.874;2023-02-01T07:58:41;6.97;;;3.33;;
10934;SDS011;5520;45.752;4.874;2023-02-01T08:01:13;7.70;;;3.27;;
10934;SDS011;5520;45.752;4.874;2023-02-01T08:03:47;7.53;;;3.40;;
10934;SDS011;5520;45.752;4.874;2023-02-01T08:06:15;4.07;;;3.47;;
10934;SDS011;5520;45.752;4.874;2023-02-01T08:08:43;5.00;;;3.07;;
10934;SDS011;5520;45.752;4.874;2023-02-01T08:11:15;6.20;;;3.70;;
10934;SDS011;5520;45.752;4.874;2023-02-01T08:13:43;5.30;;;3.10;;
10934;SDS011;5520;45.752;4.874;2023-02-01T08:16:13;6.23;;;3.37;;
10934;SDS011;5520;45.752;4.874;2023-02-01T08:18:42;4.60;;;3.10;;
10934;SDS011;5520;45.752;4.874;2023-02-01T08:21:11;4.50;;;3.37;;
10934;SDS011;5520;45.752;4.874;2023-02-01T08:23:40;7.20;;;3.57;;
10934;SDS011;5520;45.752;4.874;2023-02-01T08:26:10;4.80;;;3.63;;
10934;SDS011;5520;45.752;4.874;2023-02-01T08:28:43;6.33;;;3.43;;
10934;SDS011;5520;45.752;4.874;2023-02-01T08:31:13;8.10;;;3.60;;
10934;SDS011;5520;45.752;4.874;2023-02-01T08:33:42;6.80;;;4.13;;
10934;SDS011;5520;45.752;4.874;2023-02-01T08:36:16;3.47;;;3.00;;
10934;SDS011;5520;45.752;4.874;2023-02-01T08:38:47;9.60;;;4.17;;
10934;SDS011;5520;45.752;4.874;2023-02-01T08:41:16;5.23;;;3.80;;
10934;SDS011;5520;45.752;4.874;2023-02-01T08:43:46;14.03;;;6.67;;
10934;SDS011;5520;45.752;4.874;2023-02-01T08:46:15;10.30;;;5.03;;
10934;SDS011;5520;45.752;4.874;2023-02-01T08:48:45;5.00;;;3.47;;
10934;SDS011;5520;45.752;4.874;2023-02-01T08:51:14;6.23;;;3.23;;
10934;SDS011;5520;45.752;4.874;2023-02-01T08:53:43;9.47;;;4.50;;
10934;SDS011;5520;45.752;4.874;2023-02-01T08:56:12;6.83;;;3.83;;
10934;SDS011;5520;45.752;4.874;2023-02-01T08:58:40;7.27;;;4.10;;
10934;SDS011;5520;45.752;4.874;2023-02-01T09:01:11;7.37;;;3.40;;
10934;SDS011;5520;45.752;4.874;2023-02-01T09:03:40;8.23;;;4.10;;
10934;SDS011;5520;45.752;4.874;2023-02-01T09:06:09;8.03;;;3.40;;
10934;SDS011;5520;45.752;4.874;2023-02-01T09:08:38;6.80;;;4.13;;
10934;SDS011;5520;45.752;4.874;2023-02-01T09:11:07;6.10;;;3.67;;
10934;SDS011;5520;45.752;4.874;2023-02-01T09:13:35;4.00;;;3.43;;
10934;SDS011;5520;45.752;4.874;2023-02-01T09:16:04;6.83;;;4.00;;
10934;SDS011;5520;45.752;4.874;2023-02-01T09:18:33;7.37;;;4.53;;
10934;SDS011;5520;45.752;4.874;2023-02-01T09:21:04;7.60;;;4.50;;
10934;SDS011;5520;45.752;4.874;2023-02-01T09:23:33;9.57;;;4.00;;
10934;SDS011;5520;45.752;4.874;2023-02-01T09:26:02;6.97;;;4.27;;
10934;SDS011;5520;45.752;4.874;2023-02-01T09:28:30;10.23;;;4.20;;
10934;SDS011;5520;45.752;4.874;2023-02-01T09:30:59;8.27;;;3.80;;
10934;SDS011;5520;45.752;4.874;2023-02-01T09:33:30;6.73;;;3.73;;
10934;SDS011;5520;45.752;4.874;2023-02-01T09:36:01;9.63;;;4.17;;
10934;SDS011;5520;45.752;4.874;2023-02-01T09:38:30;10.63;;;4.87;;
10934;SDS011;5520;45.752;4.874;2023-02-01T09:41:06;5.87;;;4.87;;
10934;SDS011;5520;45.752;4.874;2023-02-01T09:43:37;9.63;;;4.90;;
10934;SDS011;5520;45.752;4.874;2023-02-01T09:46:18;5.27;;;4.43;;
10934;SDS011;5520;45.752;4.874;2023-02-01T09:48:47;6.93;;;4.63;;
10934;SDS011;5520;45.752;4.874;2023-02-01T09:51:19;8.07;;;4.63;;
10934;SDS011;5520;45.752;4.874;2023-02-01T09:53:53;7.67;;;4.47;;
10934;SDS011;5520;45.752;4.874;2023-02-01T09:56:23;9.13;;;4.50;;
10934;SDS011;5520;45.752;4.874;2023-02-01T09:58:54;6.60;;;4.80;;
10934;SDS011;5520;45.752;4.874;2023-02-01T10:01:24;9.27;;;5.03;;
10934;SDS011;5520;45.752;4.874;2023-02-01T10:03:55;8.13;;;5.30;;
10934;SDS011;5520;45.752;4.874;2023-02-01T10:06:30;7.73;;;4.80;;
10934;SDS011;5520;45.752;4.874;2023-02-01T10:09:04;8.93;;;5.10;;
10934;SDS011;5520;45.752;4.874;2023-02-01T10:11:40;5.70;;;3.67;;
10934;SDS011;5520;45.752;4.874;2023-02-01T10:14:19;5.90;;;4.53;;
10934;SDS011;5520;45.752;4.874;2023-02-01T10:16:50;7.87;;;4.27;;
10934;SDS011;5520;45.752;4.874;2023-02-01T10:19:25;9.07;;;4.40;;
10934;SDS011;5520;45.752;4.874;2023-02-01T10:21:59;7.23;;;4.33;;
10934;SDS011;5520;45.752;4.874;2023-02-01T10:24:32;7.23;;;3.77;;
10934;SDS011;5520;45.752;4.874;2023-02-01T10:27:06;9.73;;;4.73;;
10934;SDS011;5520;45.752;4.874;2023-02-01T10:29:37;6.30;;;4.17;;
10934;SDS011;5520;45.752;4.874;2023-02-01T10:34:53;5.93;;;4.40;;
10934;SDS011;5520;45.752;4.874;2023-02-01T10:37:26;5.20;;;3.90;;
10934;SDS011;5520;45.752;4.874;2023-02-01T10:39:55;3.97;;;3.43;;
10934;SDS011;5520;45.752;4.874;2023-02-01T10:42:25;8.77;;;4.50;;
10934;SDS011;5520;45.752;4.874;2023-02-01T10:44:54;7.53;;;3.97;;
10934;SDS011;5520;45.752;4.874;2023-02-01T10:47:23;8.93;;;4.23;;
10934;SDS011;5520;45.752;4.874;2023-02-01T10:49:54;8.00;;;4.13;;
10934;SDS011;5520;45.752;4.874;2023-02-01T10:52:27;8.20;;;4.90;;
10934;SDS011;5520;45.752;4.874;2023-02-01T10:55:08;7.27;;;4.57;;
10934;SDS011;5520;45.752;4.874;2023-02-01T10:57:55;7.57;;;3.53;;
10934;SDS011;5520;45.752;4.874;2023-02-01T11:00:24;5.97;;;3.80;;
10934;SDS011;5520;45.752;4.874;2023-02-01T11:02:52;4.40;;;3.50;;
10934;SDS011;5520;45.752;4.874;2023-02-01T11:05:20;6.53;;;3.60;;
10934;SDS011;5520;45.752;4.874;2023-02-01T11:07:52;11.70;;;3.80;;
10934;SDS011;5520;45.752;4.874;2023-02-01T11:10:35;9.33;;;3.90;;
10934;SDS011;5520;45.752;4.874;2023-02-01T11:13:03;3.70;;;3.13;;
10934;SDS011;5520;45.752;4.874;2023-02-01T11:15:32;3.67;;;3.37;;
10934;SDS011;5520;45.752;4.874;2023-02-01T11:18:14;8.83;;;2.80;;
10934;SDS011;5520;45.752;4.874;2023-02-01T11:20:42;4.80;;;2.97;;
10934;SDS011;5520;45.752;4.874;2023-02-01T11:23:15;5.17;;;3.03;;
10934;SDS011;5520;45.752;4.874;2023-02-01T11:25:47;5.30;;;3.33;;
10934;SDS011;5520;45.752;4.874;2023-02-01T11:28:16;6.37;;;3.47;;
10934;SDS011;5520;45.752;4.874;2023-02-01T11:30:45;5.63;;;3.40;;
10934;SDS011;5520;45.752;4.874;2023-02-01T11:33:14;8.93;;;3.57;;
10934;SDS011;5520;45.752;4.874;2023-02-01T11:35:43;5.93;;;3.13;;
10934;SDS011;5520;45.752;4.874;2023-02-01T11:38:12;5.33;;;3.03;;
10934;SDS011;5520;45.752;4.874;2023-02-01T11:40:42;5.00;;;2.97;;
10934;SDS011;5520;45.752;4.874;2023-02-01T11:43:13;3.73;;;2.70;;
10934;SDS011;5520;45.752;4.874;2023-02-01T11:45:44;5.20;;;2.73;;
10934;SDS011;5520;45.752;4.874;2023-02-01T11:48:20;2.73;;;2.53;;
10934;SDS011;5520;45.752;4.874;2023-02-01T11:50:55;7.57;;;3.40;;
10934;SDS011;5520;45.752;4.874;2023-02-01T11:53:28;7.20;;;4.13;;
10934;SDS011;5520;45.752;4.874;2023-02-01T11:56:04;7.20;;;3.80;;
10934;SDS011;5520;45.752;4.874;2023-02-01T11:58:47;5.10;;;4.60;;
10934;SDS011;5520;45.752;4.874;2023-02-01T12:01:21;6.83;;;3.77;;
10934;SDS011;5520;45.752;4.874;2023-02-01T12:06:47;5.00;;;2.90;;
10934;SDS011;5520;45.752;4.874;2023-02-01T12:09:29;3.30;;;2.90;;
10934;SDS011;5520;45.752;4.874;2023-02-01T12:12:03;4.43;;;3.00;;
10934;SDS011;5520;45.752;4.874;2023-02-01T12:14:38;2.50;;;2.30;;
10934;SDS011;5520;45.752;4.874;2023-02-01T12:17:35;4.33;;;2.63;;
10934;SDS011;5520;45.752;4.874;2023-02-01T12:20:19;4.67;;;2.53;;
10934;SDS011;5520;45.752;4.874;2023-02-01T12:22:54;4.53;;;2.57;;
10934;SDS011;5520;45.752;4.874;2023-02-01T12:25:30;2.90;;;2.60;;
10934;SDS011;5520;45.752;4.874;2023-02-01T12:31:06;2.73;;;2.53;;
10934;SDS011;5520;45.752;4.874;2023-02-01T12:33:42;3.10;;;2.77;;
10934;SDS011;5520;45.752;4.874;2023-02-01T12:36:16;3.83;;;2.90;;
10934;SDS011;5520;45.752;4.874;2023-02-01T12:38:51;4.50;;;2.83;;
10934;SDS011;5520;45.752;4.874;2023-02-01T12:41:34;4.27;;;2.47;;
10934;SDS011;5520;45.752;4.874;2023-02-01T12:53:05;4.10;;;2.50;;
10934;SDS011;5520;45.752;4.874;2023-02-01T12:55:36;7.43;;;2.40;;
10934;SDS011;5520;45.752;4.874;2023-02-01T12:58:12;2.57;;;2.13;;
10934;SDS011;5520;45.752;4.874;2023-02-01T13:00:43;2.77;;;1.73;;
10934;SDS011;5520;45.752;4.874;2023-02-01T13:03:17;4.63;;;2.10;;
10934;SDS011;5520;45.752;4.874;2023-02-01T13:05:50;2.07;;;1.80;;
10934;SDS011;5520;45.752;4.874;2023-02-01T13:08:21;5.43;;;2.27;;
10934;SDS011;5520;45.752;4.874;2023-02-01T13:10:51;4.83;;;2.27;;
10934;SDS011;5520;45.752;4.874;2023-02-01T13:13:22;4.83;;;2.40;;
10934;SDS011;5520;45.752;4.874;2023-02-01T13:16:02;4.63;;;2.80;;
10934;SDS011;5520;45.752;4.874;2023-02-01T13:18:37;4.13;;;2.10;;
10934;SDS011;5520;45.752;4.874;2023-02-01T13:21:07;3.37;;;2.67;;
10934;SDS011;5520;45.752;4.874;2023-02-01T13:23:38;3.30;;;1.93;;
10934;SDS011;5520;45.752;4.874;2023-02-01T13:26:07;2.87;;;1.87;;
10934;SDS011;5520;45.752;4.874;2023-02-01T13:28:36;4.80;;;1.70;;
10934;SDS011;5520;45.752;4.874;2023-02-01T13:31:17;2.30;;;1.87;;
10934;SDS011;5520;45.752;4.874;2023-02-01T13:33:58;6.70;;;2.30;;
10934;SDS011;5520;45.752;4.874;2023-02-01T13:36:44;2.00;;;1.90;;
10934;SDS011;5520;45.752;4.874;2023-02-01T13:42:03;6.83;;;2.07;;
10934;SDS011;5520;45.752;4.874;2023-02-01T13:44:34;4.83;;;1.90;;
10934;SDS011;5520;45.752;4.874;2023-02-01T13:47:11;2.00;;;1.80;;
10934;SDS011;5520;45.752;4.874;2023-02-01T13:49:40;1.80;;;1.70;;
10934;SDS011;5520;45.752;4.874;2023-02-01T13:54:49;3.90;;;2.07;;
10934;SDS011;5520;45.752;4.874;2023-02-01T13:57:35;2.00;;;1.77;;
10934;SDS011;5520;45.752;4.874;2023-02-01T14:00:08;2.23;;;2.03;;
10934;SDS011;5520;45.752;4.874;2023-02-01T14:02:47;2.10;;;2.00;;
10934;SDS011;5520;45.752;4.874;2023-02-01T14:08:09;2.30;;;1.60;;
10934;SDS011;5520;45.752;4.874;2023-02-01T14:10:49;3.17;;;1.80;;
10934;SDS011;5520;45.752;4.874;2023-02-01T14:13:27;2.87;;;2.03;;
10934;SDS011;5520;45.752;4.874;2023-02-01T14:16:12;2.37;;;1.73;;
10934;SDS011;5520;45.752;4.874;2023-02-01T14:19:00;2.73;;;2.27;;
10934;SDS011;5520;45.752;4.874;2023-02-01T14:21:29;1.60;;;1.50;;
10934;SDS011;5520;45.752;4.874;2023-02-01T14:23:58;2.80;;;1.57;;
10934;SDS011;5520;45.752;4.874;2023-02-01T14:26:40;7.20;;;1.53;;
10934;SDS011;5520;45.752;4.874;2023-02-01T14:29:24;2.57;;;1.60;;
10934;SDS011;5520;45.752;4.874;2023-02-01T14:31:54;1.70;;;1.60;;
10934;SDS011;5520;45.752;4.874;2023-02-01T14:34:34;2.77;;;2.47;;
10934;SDS011;5520;45.752;4.874;2023-02-01T14:37:04;2.13;;;1.80;;
10934;SDS011;5520;45.752;4.874;2023-02-01T14:39:48;4.37;;;2.23;;
10934;SDS011;5520;45.752;4.874;2023-02-01T14:42:21;3.30;;;1.90;;
10934;SDS011;5520;45.752;4.874;2023-02-01T14:44:51;1.67;;;1.40;;
10934;SDS011;5520;45.752;4.874;2023-02-01T14:47:26;3.77;;;1.73;;
10934;SDS011;5520;45.752;4.874;2023-02-01T14:49:56;2.83;;;2.00;;
10934;SDS011;5520;45.752;4.874;2023-02-01T14:52:28;3.00;;;1.67;;
10934;SDS011;5520;45.752;4.874;2023-02-01T14:55:01;2.73;;;2.43;;
10934;SDS011;5520;45.752;4.874;2023-02-01T14:57:32;3.13;;;1.53;;
10934;SDS011;5520;45.752;4.874;2023-02-01T15:00:07;2.77;;;2.00;;
10934;SDS011;5520;45.752;4.874;2023-02-01T15:02:36;2.47;;;1.70;;
10934;SDS011;5520;45.752;4.874;2023-02-01T15:05:19;5.20;;;1.57;;
10934;SDS011;5520;45.752;4.874;2023-02-01T15:07:49;2.37;;;2.13;;
10934;SDS011;5520;45.752;4.874;2023-02-01T15:10:17;2.43;;;1.70;;
10934;SDS011;5520;45.752;4.874;2023-02-01T15:12:46;2.20;;;2.10;;
10934;SDS011;5520;45.752;4.874;2023-02-01T15:15:18;2.13;;;1.83;;
10934;SDS011;5520;45.752;4.874;2023-02-01T15:17:50;3.70;;;2.40;;
10934;SDS011;5520;45.752;4.874;2023-02-01T15:20:18;4.67;;;2.27;;
10934;SDS011;5520;45.752;4.874;2023-02-01T15:22:53;2.20;;;2.00;;
10934;SDS011;5520;45.752;4.874;2023-02-01T15:25:22;7.27;;;2.03;;
10934;SDS011;5520;45.752;4.874;2023-02-01T15:27:51;2.03;;;1.73;;
10934;SDS011;5520;45.752;4.874;2023-02-01T15:30:22;8.30;;;2.50;;
10934;SDS011;5520;45.752;4.874;2023-02-01T15:32:50;4.03;;;2.70;;
10934;SDS011;5520;45.752;4.874;2023-02-01T15:35:34;2.60;;;2.17;;
10934;SDS011;5520;45.752;4.874;2023-02-01T15:41:02;5.33;;;2.33;;
10934;SDS011;5520;45.752;4.874;2023-02-01T15:43:32;2.50;;;2.17;;
10934;SDS011;5520;45.752;4.874;2023-02-01T15:46:02;6.43;;;2.50;;
10934;SDS011;5520;45.752;4.874;2023-02-01T15:48:32;3.63;;;1.97;;
10934;SDS011;5520;45.752;4.874;2023-02-01T15:51:02;5.20;;;2.83;;
10934;SDS011;5520;45.752;4.874;2023-02-01T15:53:30;4.93;;;2.87;;
10934;SDS011;5520;45.752;4.874;2023-02-01T15:56:00;2.53;;;2.00;;
10934;SDS011;5520;45.752;4.874;2023-02-01T15:58:29;5.13;;;1.80;;